Date,TemperatureHighF,TemperatureAvgF,TemperatureLowF,DewpointHighF,DewpointAvgF,DewpointLowF,HumidityHigh,HumidityAvg,HumidityLow,PressureMaxIn,PressureMinIn,WindSpeedMaxMPH,WindSpeedAvgMPH,GustSpeedMaxMPH,PrecipitationSumIn
2013-2-22,37.9,33.7,29.5,19.5,16.6,14.7,63,49,41,0.00,40.00,6,1,10,0.01
2013-2-23,33.6,31.5,30.2,26.9,21.8,0.4,83,68,25,0.00,40.00,115,2,13,0.24
2013-2-24,35.8,32.6,30.0,29.9,27.9,25.7,85,83,78,0.00,40.00,1,0,2,0.19
2013-2-25,34.7,31.2,26.1,30.1,26.7,20.8,85,83,79,0.00,40.00,2,0,3,0.02
2013-2-26,39.4,32.7,26.8,32.4,25.8,21.2,85,76,67,0.00,40.00,7,1,10,0.07
2013-2-27,35.1,33.0,31.3,29.8,27.1,23.0,85,79,65,0.00,40.00,10,2,17,0.37
2013-2-28,42.1,34.8,30.6,35.0,29.7,26.6,85,82,73,0.00,40.00,2,0,4,0.07
2013-3-1,37.8,32.3,28.0,28.4,25.1,22.5,86,75,59,0.00,40.00,4,0,8,0.01
2013-3-2,37.6,31.3,25.7,24.4,21.7,17.9,75,68,51,0.00,40.00,4,1,8,0.00
2013-3-3,34.3,28.6,24.3,24.7,20.4,17.1,75,71,64,0.00,40.00,3,0,4,0.07
2013-3-4,32.7,27.8,25.0,21.4,17.1,14.3,73,64,57,0.00,40.00,4,1,11,0.00
2013-3-5,42.1,31.5,24.6,24.8,19.7,14.4,73,62,49,0.00,40.00,5,1,8,0.01
2013-3-6,37.2,33.8,30.7,26.4,23.2,18.3,78,65,51,0.00,40.00,10,2,17,0.00
2013-3-7,38.5,33.3,29.7,22.4,19.6,17.9,74,57,49,0.00,40.00,5,2,9,0.00
2013-3-8,55.0,32.1,27.1,24.1,20.8,8.3,80,64,15,0.00,40.00,8,1,11,0.27
2013-3-9,54.1,34.0,17.4,23.4,15.1,8.9,73,50,19,0.00,40.00,4,1,7,0.00
2013-3-10,54.1,37.4,21.0,25.6,19.8,13.0,72,52,26,0.00,40.00,13,2,18,0.00
2013-3-11,47.1,40.7,33.6,32.8,26.8,22.7,68,58,46,0.00,40.00,8,1,12,0.00
2013-3-12,48.0,44.5,40.8,45.3,40.0,32.3,92,84,68,0.00,40.00,11,3,15,0.85
2013-3-13,42.4,36.6,27.0,38.7,30.5,20.4,92,79,61,0.00,40.00,4,0,6,0.02
2013-3-14,34.2,26.4,18.0,23.6,12.5,-1.0,82,56,39,0.00,40.00,6,1,11,0.00
2013-3-15,34.5,24.7,13.5,23.4,7.2,-2.5,77,48,25,0.00,40.00,4,1,8,0.00
2013-3-16,32.0,25.5,16.7,17.2,10.5,5.3,73,54,37,0.00,40.00,4,0,5,0.06
2013-3-17,30.9,22.4,13.3,8.9,0.5,-10.0,62,39,24,0.00,40.00,6,1,14,0.00
2013-3-18,34.7,21.9,5.4,14.2,-2.4,-8.8,58,35,22,0.00,40.00,7,1,14,0.00
2013-3-19,32.7,27.9,25.5,24.4,20.0,14.2,81,72,58,0.00,40.00,9,1,14,0.00
2013-3-20,35.1,27.6,23.2,21.7,18.8,15.6,77,69,56,0.00,40.00,5,1,9,0.14
2013-3-21,38.8,26.4,10.8,16.7,10.3,2.0,70,52,28,0.00,40.00,4,1,7,0.01
2013-3-22,38.3,26.0,12.7,21.6,11.9,2.6,71,56,39,0.00,40.00,4,1,6,0.00
2013-3-23,40.3,30.5,21.0,20.5,16.3,11.6,72,56,40,0.00,40.00,8,2,17,0.01
2013-3-24,42.4,33.9,25.9,21.9,19.1,14.7,63,55,41,0.00,40.00,5,1,10,0.00
2013-3-25,45.1,32.5,20.5,25.3,18.6,-14.8,74,58,8,0.00,40.00,11,1,41,0.00
2013-3-26,47.3,36.5,28.4,26.4,20.1,-27.8,79,54,30,0.00,40.00,12,1,29,0.00
2013-3-27,48.0,35.8,22.8,27.8,21.1,14.4,77,57,36,0.00,40.00,8,1,12,0.02
2013-3-28,49.1,37.7,30.7,35.0,28.5,23.1,85,70,44,0.00,40.00,4,0,6,0.03
2013-3-29,49.6,38.1,29.8,34.0,28.0,20.7,84,68,46,0.00,40.00,4,1,8,0.09
2013-3-30,53.1,38.7,27.0,31.6,19.0,7.4,81,51,21,0.00,40.00,8,1,9,0.00
2013-3-31,56.1,39.2,22.1,34.5,18.7,11.5,82,47,21,0.00,40.00,8,2,13,0.08
2013-4-1,47.8,37.4,28.6,40.1,29.6,11.9,88,74,43,0.00,40.00,5,1,15,0.34
2013-4-2,35.2,29.0,23.9,11.9,6.7,1.9,49,39,25,0.00,40.00,11,2,15,0.00
2013-4-3,42.6,32.1,23.2,10.7,6.3,0.6,44,34,21,0.00,40.00,9,2,14,0.00
2013-4-4,52.3,37.4,22.1,17.6,10.7,3.9,52,35,20,0.00,40.00,6,1,8,0.00
2013-4-5,56.1,39.9,30.6,25.1,19.6,15.0,62,45,23,0.00,40.00,6,1,11,0.00
2013-4-6,41.4,31.6,23.4,15.0,3.2,-4.3,50,30,20,0.00,40.00,8,2,21,0.00
2013-4-7,57.4,41.8,26.1,32.6,16.9,2.6,61,38,21,0.00,40.00,11,3,17,0.00
2013-4-8,59.0,46.6,35.2,34.1,29.3,23.9,76,53,28,0.00,40.00,6,1,11,0.00
2013-4-9,58.6,47.5,41.5,45.0,38.3,28.5,86,71,46,0.00,40.00,19,2,19,0.14
2013-4-10,51.6,44.8,40.8,45.1,40.8,36.5,90,86,76,0.00,40.00,4,0,5,0.59
2013-4-11,43.5,40.2,35.4,39.7,28.8,13.5,91,66,38,0.00,40.00,4,1,6,0.01
2013-4-12,35.6,32.2,29.8,27.2,23.6,14.3,81,71,41,0.00,40.00,4,0,6,0.03
2013-4-13,52.9,39.0,31.6,36.6,31.3,26.8,85,75,46,0.00,40.00,4,0,8,0.03
2013-4-14,47.5,38.7,29.7,36.5,29.8,22.9,87,71,53,0.00,40.00,6,1,11,0.01
2013-4-15,60.3,42.8,25.2,33.6,27.1,19.0,83,58,30,0.00,40.00,8,1,16,0.00
2013-4-16,62.8,50.6,34.2,48.8,37.9,-99.9,88,64,42,0.00,40.00,8,2,17,18.30
2013-4-17,60.6,48.9,34.2,47.1,31.7,22.5,89,56,25,0.00,40.00,6,1,12,0.00
2013-4-18,60.4,46.2,28.2,37.1,26.0,19.7,76,48,30,0.00,40.00,11,2,16,0.00
2013-4-19,75.2,62.8,52.3,58.1,51.1,36.9,85,66,46,0.00,40.00,14,4,24,0.19
2013-4-20,55.2,44.5,35.2,50.8,32.5,13.7,89,65,38,0.00,40.00,7,2,14,0.20
2013-4-21,51.1,38.6,28.4,18.2,14.6,9.9,56,39,23,0.00,40.00,6,2,9,0.00
2013-4-22,56.3,39.2,23.7,24.0,16.2,11.0,67,43,20,0.00,40.00,9,2,17,0.00
2013-4-23,41.9,36.6,26.6,32.8,27.3,18.2,79,69,59,0.00,40.00,7,1,11,0.00
2013-4-24,75.9,55.7,38.1,46.3,37.9,32.5,82,56,23,0.00,40.00,6,1,11,0.00
2013-4-25,61.5,51.0,34.3,48.4,32.1,23.4,73,50,26,0.00,40.00,8,2,12,0.00
2013-4-26,57.4,43.6,27.3,35.1,28.5,20.3,82,58,32,0.00,40.00,5,1,10,0.00
2013-4-27,66.7,48.2,30.4,39.0,29.4,20.6,90,55,18,0.00,40.00,5,1,8,0.00
2013-4-28,73.0,52.9,30.6,39.1,31.9,25.7,84,51,19,0.00,40.00,12,2,16,0.01
2013-4-29,71.2,57.1,43.0,41.0,37.1,33.7,73,49,29,0.00,40.00,5,1,9,0.00
2013-4-30,76.8,61.6,51.1,41.9,33.8,25.4,61,37,21,0.00,40.00,9,1,14,0.00
2013-5-1,79.0,60.3,39.9,38.2,30.4,20.2,73,38,13,0.00,40.00,7,1,9,0.00
2013-5-2,84.0,59.4,41.2,45.4,36.9,24.1,83,48,19,0.00,40.00,14,2,23,0.11
2013-5-3,71.1,54.6,35.8,42.7,36.0,24.6,82,52,30,0.00,40.00,7,1,11,0.00
2013-5-4,77.2,58.2,39.0,48.5,38.0,25.4,93,55,20,0.00,40.00,10,2,17,0.00
2013-5-5,77.7,57.3,36.3,38.6,32.9,26.0,81,45,18,0.00,40.00,9,1,11,0.00
2013-5-6,79.5,59.4,37.9,44.6,34.5,20.2,88,48,13,0.00,40.00,6,1,9,0.00
2013-5-7,85.1,63.7,41.5,50.8,40.8,34.2,90,51,17,0.00,40.00,7,1,11,0.00
2013-5-8,76.3,62.2,49.8,63.2,54.8,47.2,94,79,43,0.00,40.00,9,2,14,0.26
2013-5-9,69.8,61.3,55.8,60.5,57.6,54.9,99,88,61,0.00,40.00,6,1,11,0.08
2013-5-10,75.0,61.7,50.4,61.1,55.9,49.8,99,83,56,0.00,40.00,4,0,7,0.00
2013-5-11,68.4,61.6,57.7,62.1,59.0,55.9,99,91,78,0.00,40.00,4,1,13,0.27
2013-5-12,64.4,55.1,41.9,58.0,47.2,30.8,99,77,43,0.00,40.00,5,1,10,0.00
2013-5-13,50.4,43.9,37.9,34.9,31.3,28.0,83,62,46,0.00,40.00,5,1,10,0.00
2013-5-14,56.8,44.8,32.4,38.2,31.2,24.9,94,63,32,0.00,40.00,5,1,10,0.00
2013-5-15,67.1,46.4,28.8,50.8,36.9,25.4,97,74,28,0.00,40.00,8,1,13,0.03
2013-5-16,75.6,57.6,40.3,54.2,42.7,31.1,99,66,23,0.00,40.00,7,1,14,0.01
2013-5-17,68.5,54.0,43.5,43.4,39.4,34.5,82,60,30,0.00,40.00,7,1,12,0.00
2013-5-18,72.3,55.6,36.0,45.8,39.1,28.9,96,60,21,0.00,40.00,8,1,15,0.00
2013-5-19,71.1,56.0,43.3,53.6,48.4,40.9,96,78,46,0.00,40.00,4,1,10,0.25
2013-5-20,68.0,60.7,54.5,64.3,58.7,53.4,99,93,86,0.00,40.00,3,0,6,0.03
2013-5-21,81.5,62.7,51.4,68.5,58.5,49.3,99,88,57,0.00,40.00,11,2,17,0.45
2013-5-22,71.4,58.2,50.9,64.4,55.9,49.4,99,92,74,0.00,40.00,11,2,17,0.27
2013-5-23,76.8,65.0,54.9,68.3,61.1,53.7,99,88,71,0.00,40.00,6,2,11,0.00
2013-5-24,66.4,55.6,45.0,63.4,54.0,43.7,98,95,88,0.00,40.00,3,0,8,0.50
2013-5-25,45.0,41.6,33.3,44.2,41.1,32.2,99,98,94,0.00,40.00,5,1,13,0.92
2013-5-26,51.8,42.4,33.1,45.7,39.3,32.3,99,89,70,0.00,40.00,7,1,14,0.25
2013-5-27,66.9,49.4,30.9,46.4,37.4,29.9,99,69,32,0.00,40.00,6,1,13,0.00
2013-5-28,74.1,55.9,35.6,48.7,41.2,32.9,97,63,28,0.00,40.00,8,1,11,0.00
2013-5-29,61.2,57.1,52.0,59.1,53.5,43.4,99,88,58,0.00,40.00,7,1,10,0.18
2013-5-30,83.7,68.8,55.4,68.8,61.8,55.1,99,81,52,0.00,40.00,6,0,8,0.00
2013-5-31,90.9,73.7,57.4,70.5,62.0,56.0,97,71,39,0.00,40.00,4,1,9,0.00
2013-6-1,91.6,75.7,61.3,70.0,64.0,59.0,94,71,35,0.00,40.00,4,0,8,0.14
2013-6-2,87.6,71.1,63.5,76.5,66.3,62.6,98,86,52,0.00,40.00,8,1,11,0.41
2013-6-3,76.1,65.6,52.0,65.4,58.8,48.1,99,81,49,0.00,40.00,4,1,9,0.00
2013-6-4,66.4,55.2,41.9,48.5,44.7,40.3,96,70,46,0.00,40.00,4,1,8,0.00
2013-6-5,73.9,58.0,42.1,47.3,43.1,37.7,95,63,28,0.00,40.00,4,0,7,0.00
2013-6-6,75.9,61.7,50.2,55.0,48.2,38.8,93,64,34,0.00,40.00,8,1,11,0.03
2013-6-7,56.3,52.8,51.3,54.3,51.5,48.9,99,96,90,0.00,40.00,7,0,13,0.71
2013-6-8,67.1,58.3,51.3,62.7,56.3,51.0,99,93,81,0.00,40.00,2,0,3,0.18
2013-6-9,75.2,63.7,54.0,60.5,55.9,50.6,99,78,49,0.00,40.00,4,0,8,0.00
2013-6-10,71.6,59.0,47.3,60.6,54.8,46.8,99,87,59,0.00,40.00,4,0,8,0.20
2013-6-11,58.1,55.8,53.6,57.4,55.1,52.8,99,98,95,0.00,40.00,4,0,5,0.85
2013-6-12,63.3,57.2,51.3,56.5,54.4,50.0,99,91,73,0.00,40.00,4,1,11,0.04
2013-6-13,63.0,55.2,47.1,58.5,53.4,46.9,99,94,80,0.00,40.00,2,0,4,0.17
2013-6-14,76.8,62.7,54.0,61.4,54.1,47.2,99,77,36,0.00,40.00,4,0,7,0.00
2013-6-15,75.9,60.9,45.1,53.2,48.1,40.2,98,68,32,0.00,40.00,6,1,10,0.00
2013-6-16,71.8,58.2,45.9,59.8,52.8,28.5,97,84,53,0.00,40.00,5,0,8,0.06
2013-6-17,78.3,62.4,50.2,65.1,57.6,49.9,99,86,54,0.00,40.00,5,0,11,0.03
2013-6-18,60.6,58.3,51.8,58.6,56.3,51.0,98,93,83,0.00,40.00,2,0,3,0.09
2013-6-19,73.0,59.3,48.7,54.0,48.5,43.1,99,72,37,0.00,40.00,4,0,5,0.01
2013-6-20,78.3,60.0,42.1,53.3,46.9,41.0,97,67,34,0.00,40.00,4,0,6,0.00
2013-6-21,84.2,65.6,47.7,58.4,52.3,46.0,95,66,33,0.00,40.00,4,0,5,0.00
2013-6-22,84.0,67.5,54.3,67.1,60.0,51.9,96,78,50,0.00,40.00,4,0,7,0.06
2013-6-23,87.6,71.3,63.0,75.3,67.6,61.5,99,89,61,0.00,40.00,4,0,7,0.45
2013-6-24,87.1,74.9,62.1,74.1,67.0,61.5,99,79,61,0.00,40.00,3,1,5,0.01
2013-6-25,80.1,62.6,47.5,65.4,54.6,45.3,92,78,61,0.00,40.00,2,1,5,0.00
2013-6-26,47.5,47.5,47.5,45.3,45.3,45.3,92,92,92,0.00,40.00,0,0,1,0.00
2013-6-27,47.5,47.5,47.5,45.3,45.3,45.3,92,92,92,0.00,40.00,0,0,1,0.00
2013-6-28,47.5,47.5,47.5,45.3,45.3,45.3,92,92,92,0.00,40.00,0,0,1,0.00
2013-6-29,47.5,47.5,47.5,45.3,45.3,45.3,92,92,92,0.00,40.00,0,0,1,0.00
2013-6-30,47.5,47.5,47.5,45.3,45.3,45.3,92,92,92,0.00,40.00,0,0,1,0.00
2013-7-1,47.5,47.5,47.5,45.3,45.3,45.3,92,92,92,0.00,40.00,0,0,1,0.00
2013-7-2,47.5,47.5,47.5,45.3,45.3,45.3,92,92,92,0.00,40.00,0,0,1,0.00
2013-7-3,47.5,47.5,47.5,45.3,45.3,45.3,92,92,92,0.00,40.00,0,0,1,0.00
2013-7-4,47.5,47.5,47.5,45.3,45.3,45.3,92,92,92,0.00,40.00,0,0,1,0.00
2013-7-5,47.5,47.5,47.5,45.3,45.3,45.3,92,92,92,0.00,40.00,0,0,1,0.00
2013-7-6,47.5,47.5,47.5,45.3,45.3,45.3,92,92,92,0.00,40.00,0,0,1,0.00
2013-7-7,47.5,47.5,47.5,45.3,13.1,-99.9,92,72,92,0.00,40.00,0,0,1,0.00
2013-7-8,47.5,47.5,47.5,-99.9,-99.9,-99.9,0,0,100,0.00,40.00,0,0,1,0.00
2013-7-9,47.5,47.5,47.5,-99.9,-99.9,-99.9,0,0,100,0.00,40.00,0,0,1,0.00
2013-7-10,47.5,47.5,47.5,-99.9,-99.9,-99.9,0,0,100,0.00,40.00,0,0,1,0.00
2013-7-11,47.5,47.5,47.5,-99.9,-99.9,-99.9,0,0,100,0.00,40.00,0,0,1,0.00
2013-7-12,82.0,57.1,47.5,67.4,-40.2,-99.9,92,27,49,0.00,40.00,2,0,3,0.00
2013-7-13,78.6,69.4,58.3,68.6,63.3,57.1,97,82,58,0.00,40.00,5,0,9,0.00
2013-7-14,85.5,75.0,66.6,72.9,69.0,62.5,97,83,61,0.00,40.00,2,0,4,0.00
2013-7-15,88.9,76.3,65.5,74.1,67.6,64.2,98,77,48,0.00,40.00,3,0,6,0.01
2013-7-16,87.6,75.4,64.0,73.1,67.0,62.6,96,77,53,0.00,40.00,3,0,6,0.00
2013-7-17,93.0,77.6,63.3,73.7,68.8,62.2,97,77,45,0.00,40.00,4,0,7,6.41
2013-7-18,91.0,76.7,68.2,75.3,71.0,66.7,97,84,53,0.00,40.00,2,0,5,0.03
2013-7-19,91.2,78.6,67.8,76.1,70.9,67.4,99,80,51,0.00,40.00,5,1,12,0.09
2013-7-20,84.6,73.1,65.5,72.8,67.9,-99.9,99,86,60,0.00,40.00,7,1,11,6.56
2013-7-21,81.0,69.3,59.7,65.8,62.1,58.7,99,80,53,0.00,40.00,3,0,4,0.01
2013-7-22,79.2,67.5,56.1,68.5,62.6,55.0,97,85,67,0.00,40.00,10,2,13,0.02
2013-7-23,72.7,67.1,63.5,69.6,65.6,62.6,99,95,84,0.00,40.00,4,0,7,1.03
2013-7-24,73.9,64.8,54.0,70.5,60.2,47.4,99,86,65,0.00,40.00,4,0,6,0.00
2013-7-25,72.3,59.8,45.5,61.2,53.0,44.7,99,80,54,0.00,40.00,4,0,6,0.00
2013-7-26,73.4,63.4,58.1,64.6,59.8,57.0,98,89,71,0.00,40.00,2,0,3,0.00
2013-7-27,82.8,66.7,52.0,67.1,59.2,51.4,99,80,43,0.00,40.00,3,0,8,0.00
2013-7-28,81.1,68.9,59.0,68.4,63.5,58.3,99,84,53,0.00,40.00,11,1,14,0.00
2013-7-29,82.0,69.9,58.8,70.3,64.8,57.3,98,85,49,0.00,40.00,6,1,11,0.22
2013-7-30,78.1,65.5,55.0,61.8,57.5,53.6,99,78,46,0.00,40.00,4,0,6,0.01
2013-7-31,81.1,66.6,53.4,63.6,58.2,52.5,98,77,43,0.00,40.00,3,0,4,0.00
2013-8-1,80.2,65.5,55.9,66.8,60.9,54.8,99,87,51,0.00,40.00,8,1,10,0.29
2013-8-2,77.0,68.1,59.2,67.7,62.6,56.9,99,84,59,0.00,40.00,3,0,6,0.03
2013-8-3,73.4,63.3,55.4,64.8,58.7,54.3,99,86,59,0.00,40.00,4,1,8,8.38
2013-8-4,71.2,60.4,52.0,63.4,56.6,51.4,99,88,67,0.00,40.00,4,0,7,0.14
2013-8-5,71.2,59.2,49.6,52.2,48.2,38.6,99,72,31,0.00,40.00,5,1,8,0.00
2013-8-6,77.5,60.4,44.8,56.2,50.3,43.7,99,74,31,0.00,40.00,4,0,7,0.00
2013-8-7,79.3,65.5,52.9,62.8,56.2,51.5,98,75,40,0.00,40.00,5,1,11,0.00
2013-8-8,83.5,73.5,66.9,69.5,65.7,59.4,91,77,56,0.00,40.00,5,1,9,0.00
2013-8-9,74.5,71.4,67.3,71.3,69.2,66.7,98,93,88,0.00,40.00,4,0,6,0.24
2013-8-10,76.8,67.1,54.0,67.0,59.0,50.8,99,78,44,0.00,40.00,4,1,11,0.01
2013-8-11,76.3,61.5,48.2,58.1,53.4,47.4,99,78,43,0.00,40.00,5,0,6,0.00
2013-8-12,79.0,65.1,51.6,61.4,57.0,51.3,99,78,50,0.00,40.00,4,0,6,0.00
2013-8-13,67.1,62.5,57.4,66.5,61.4,56.0,99,96,92,0.00,40.00,2,0,5,0.51
2013-8-14,68.5,61.1,54.9,62.1,58.2,53.7,99,91,65,0.00,40.00,4,0,11,0.00
2013-8-15,71.1,70.0,70.0,55.2,53.6,53.6,59,56,54,0.00,40.00,2,1,6,0.00
2013-8-20,82.0,74.2,62.8,65.1,62.2,59.6,90,68,48,0.00,40.00,3,0,5,0.00
2013-8-21,84.6,69.9,57.7,66.8,62.0,56.3,96,78,48,0.00,40.00,114,0,114,0.00
2013-8-22,85.8,71.4,58.8,67.7,62.9,57.6,96,77,43,0.00,40.00,5,0,8,0.12
2013-8-23,75.4,64.8,51.8,66.6,57.5,48.7,96,79,48,0.00,40.00,4,0,8,0.02
2013-8-24,76.1,59.5,45.0,56.4,50.4,43.3,97,75,42,0.00,40.00,3,0,4,0.00
2013-8-25,78.3,60.9,45.0,59.4,53.1,44.2,99,78,43,0.00,40.00,2,0,4,0.00
2013-8-26,74.5,67.7,61.0,69.3,64.1,57.3,94,89,77,0.00,40.00,3,0,4,0.15
2013-8-27,83.5,72.6,65.8,70.4,67.1,64.4,96,84,58,0.00,40.00,4,0,5,0.00
2013-8-28,86.5,72.4,64.8,70.7,67.0,63.0,96,84,51,0.00,40.00,5,0,8,1.28
2013-8-29,72.7,66.5,61.5,66.2,62.9,60.5,98,89,73,0.00,40.00,8,1,14,0.01
2013-8-30,82.8,70.3,63.3,69.5,64.7,61.0,94,83,60,0.00,40.00,3,0,6,0.00
2013-8-31,74.8,70.2,66.2,72.4,68.5,65.0,97,94,89,0.00,40.00,2,0,3,0.91
2013-9-1,81.5,72.2,65.8,72.7,69.1,65.6,99,90,64,0.00,40.00,3,0,8,0.00
2013-9-2,78.4,71.4,67.3,72.8,68.9,65.8,97,92,80,0.00,40.00,7,1,11,0.62
2013-9-3,71.1,66.5,59.9,66.9,63.2,-99.9,97,91,79,0.00,40.00,2,0,74,3.12
2013-9-4,74.7,64.8,56.5,62.2,59.0,55.9,99,83,55,0.00,40.00,4,0,6,3.12
2013-9-5,65.8,57.8,43.5,59.8,50.0,40.8,98,78,43,0.00,40.00,4,1,11,0.12
2013-9-6,67.1,51.1,36.9,49.4,43.1,35.3,99,78,41,0.00,40.00,4,0,6,0.00
2013-9-7,69.4,55.3,43.7,57.9,50.5,43.2,99,86,49,0.00,40.00,3,0,5,0.03
2013-9-8,63.0,55.5,42.4,56.9,47.9,39.8,99,78,48,0.00,40.00,5,1,11,0.02
2013-9-9,69.1,52.1,36.1,51.9,44.1,34.3,99,77,43,0.00,40.00,4,0,7,0.00
2013-9-10,70.2,59.6,48.7,67.5,58.1,47.4,98,95,89,0.00,40.00,2,0,3,0.28
2013-9-11,66.6,66.1,65.7,66.0,65.4,65.1,99,98,97,0.00,40.00,1,0,2,0.00
2013-12-13,21.6,12.7,0.0,8.9,-1.0,-14.3,67,53,43,0.00,40.00,4,1,7,0.00
2013-12-14,10.4,4.3,-3.5,1.0,-10.5,-15.3,65,47,33,0.00,40.00,5,0,7,0.00
2013-12-15,24.8,18.0,10.0,16.9,10.3,-0.6,76,71,61,0.00,40.00,4,0,4,0.00
2013-12-16,19.4,13.0,-1.1,7.7,0.9,-15.2,72,58,44,0.00,40.00,4,1,11,0.00
2013-12-17,8.6,-0.6,-14.8,-1.7,-12.8,-26.9,62,52,43,0.00,40.00,2,0,3,0.00
2013-12-18,26.1,14.7,5.4,14.5,4.8,-4.6,70,64,58,0.00,40.00,2,0,3,0.01
2013-12-19,34.0,26.8,18.0,25.1,19.2,9.5,80,73,56,0.00,40.00,4,0,6,0.02
2013-12-20,37.6,32.7,30.0,32.6,27.9,25.0,86,82,78,0.00,40.00,2,0,2,10.33
2013-12-21,42.1,36.1,33.1,39.6,33.0,29.6,93,88,86,0.00,40.00,2,0,2,0.11
2013-12-22,44.1,37.1,34.2,41.9,34.4,31.0,94,90,88,0.00,40.00,8,1,17,0.10
2013-12-23,35.1,33.8,31.5,32.2,30.9,28.4,90,89,88,0.00,40.00,2,0,3,0.17
2013-12-24,31.3,25.0,13.1,28.4,14.3,-0.3,89,64,48,0.00,40.00,0,0,0,0.00
2013-12-25,52.2,10.7,3.6,0.4,-5.1,-10.7,56,47,39,0.00,40.00,0,0,0,10.71
2013-12-26,26.2,20.3,16.2,18.8,10.0,-1.4,76,64,42,0.00,40.00,8,0,10,0.00
2013-12-27,31.5,22.8,15.4,19.7,13.8,8.1,78,68,55,0.00,40.00,4,0,8,0.06
2013-12-28,34.2,27.6,16.0,26.7,20.4,8.0,82,74,68,0.00,40.00,3,0,4,0.00
2013-12-29,33.4,29.5,23.9,28.8,24.5,18.6,86,81,78,0.00,40.00,2,0,3,0.00
2013-12-30,32.5,23.4,3.2,29.1,17.2,-6.5,88,77,61,0.00,40.00,0,0,0,0.03
2013-12-31,12.6,5.4,-1.8,1.5,-5.1,-11.4,64,59,50,0.00,40.00,0,0,0,0.00
2014-1-1,18.5,9.2,2.8,5.9,-1.0,-5.9,66,62,54,0.00,40.00,0,0,0,0.00
2014-1-2,5.9,3.0,0.0,-4.9,-7.5,-11.4,62,58,53,0.00,40.00,0,0,0,0.00